West Lakeland, Minnesota
Current Conditions -  °F | °C
As of 3:51 AM on Friday 19 Dec 2014 (Local Time) from K21D Reporting Station
Overcast Overcast  
Wind Chill: 23°   Ceiling: 9500
Heat Index: 23°   Visibility: 10mi
Dew Point: 19°   Wind: 3mph
Humidity: 86%   Direction: 190°S
Pressure: 30.27"   Gusts: NA
Location:  45.0713°N, 92.8375°W
Report Text: K21D 190951Z AUTO 19003KT 10SM SCT070 SCT080 OVC095 M05/M07 A3027 RMK AO2
Loading
Personal Weather Stations






























Interactive Weather Map New forecast layout! Learn more

10-Day Weather Forecast

Advertisements
Track Severe Weather on mobile